AirNav   Pilot Hours Calculator
 
 1496 users online  

66MO Ahlers Acres Airport
Foristell, Missouri, USA

GOING TO FORISTELL?


FAA INFORMATION EFFECTIVE 03 NOVEMBER 2022

Location

FAA Identifier: 66MO
Lat/Long: 38-50-00.4400N 090-57-05.1300W
38-50.007333N 090-57.085500W
38.8334556,-90.9514250
(estimated)
Elevation: 678 ft. / 207 m (estimated)
Variation: 02E (1990)
From city: 1 mile S of FORISTELL, MO
Time zone: UTC -6 (UTC -5 during Daylight Saving Time)
Zip code: 63348

Airport Operations

Airport use: Private use. Permission required prior to landing
Activation date: 04/1993
Control tower: no
ARTCC: KANSAS CITY CENTER
FSS: SAINT LOUIS FLIGHT SERVICE STATION
Attendance: UNATNDD
Segmented circle: no

Airport Communications

WX AWOS-3PT at FYG (15 nm S): 121.325 (636-433-5914)
WX ASOS at SUS (17 nm SE): 134.8 (314-890-7255)

Nearby radio navigation aids

VOR radial/distance  VOR name  Freq  Var
FTZr001/8.4FORISTELL VORTAC110.8005E
STLr265/22.0ST LOUIS VORTAC117.4001E

 
NDB name  Hdg/Dist  Freq  Var  ID
SNOOP324/14.532601WSU ... ..-

Airport Services

Runway Information

Runway 18/36

Dimensions: 900 x 75 ft. / 274 x 23 m
Surface: turf
RUNWAY 18  RUNWAY 36
Latitude: 38-50.081500N38-49.933167N
Longitude: 090-57.090167W090-57.080833W
Elevation: 624.0 ft.678.0 ft.
Traffic pattern: leftleft
Obstructions: none24 ft. plines, 500 ft. from runway

Airport Ownership and Management from official FAA records

Ownership: Privately-owned
Owner: MARY RETHLAKE
379 HIGHWAY WEST
FORISTELL, MO 63348
Phone 612-251-8059
Manager: MARY RETHLAKE
379 HIGHWAY WEST
FORISTELL, MO 63348
Phone 612-251-8059

Airport Operational Statistics

Aircraft based on the field: 1
Single engine airplanes: 1
    

Additional Remarks

OWNER DESIRES ARPT NOT BE CHARTED.
FOR CD CTC ST LOUIS APCH AT 314-890-1018.

Instrument Procedures

There are no published instrument procedures at 66MO.

Some nearby airports with instrument procedures:

KFYG - Washington Regional Airport (15 nm S)
KSUS - Spirit of St Louis Airport (17 nm SE)
1H0 - Creve Coeur Airport (22 nm E)
KSET - St Charles County Smartt Airport (25 nm E)
KSTL - St Louis Lambert International Airport (28 nm E)
 
Loc | Ops | Rwys | IFR | FBO | Links
Com | Nav | Svcs | Stats | Notes
Area around 66MO (Ahlers Acres Airport)
 
Road maps at: MapQuest Bing Google
 
Aerial photo
No photo
 
Sectional chart

 
Airport distance calculator
Flying to Ahlers Acres Airport? Find the distance to fly.

From to 66MO

Sunrise and sunset
Times for 29-Nov-2022
 Local
(UTC-6)
 Zulu
(UTC)
Morning civil twilight06:3312:33
Sunrise07:0213:02
Sunset16:4222:42
Evening civil twilight17:1123:11

Current date and time
Zulu (UTC)  29-Nov-2022 18:19:21
Local (UTC-6)  29-Nov-2022 12:19:21
 
METAR
KFYG 
15nm S 
291755Z AUTO 20019G26KT 10SM BKN031 BKN037 19/13 A2955 RMK AO2
KSUS 
18nm SE 
291754Z 20015G26KT 10SM BKN031 17/12 A2955 RMK AO2 PK WND 20030/1720 SLP005 T01720117 10178 20072 58026
KSET 
25nm E 
291754Z AUTO 19015G23KT 10SM -RA OVC032 17/11 A2957 RMK AO2 SLP011 P0000 60000 T01720111 10172 20061 58031
KSTL 
28nm E 
291751Z 18016G24KT 10SM BKN027 BKN200 16/10 A2959 RMK AO2 PK WND 17028/1721 SLP020 T01610100 10161 20083 58027 $
TAF
KSUS 
18nm SE 
291120Z 2912/3012 15010G20KT P6SM BKN250 FM291500 17016G32KT P6SM BKN250 FM292000 19015G30KT P6SM SCT025 FM300000 22013G24KT P6SM VCSH SCT025 BKN040 FM300200 29014G27KT P6SM BKN040
NOTAMs
Click for the latest NOTAMs
NOTAMs are issued by the DoD/FAA and will open in a separate window not controlled by AirNav.

 

 
 

Would you like to see your business listed on this page?

 If your business provides an interesting product or service to pilots, flight crews, aircraft, or users of the Ahlers Acres Airport, you should consider listing it here.  To start the listing process, click on the button below
 
Add a business
 

Other Pages about Ahlers Acres Airport

Update a link
 
Copyright © AirNav, LLC. All rights reserved. Privacy Policy  Contact